createdAt,value
2022-08-31T00:02:44.868Z,19.25
2022-08-31T00:05:12.063Z,19.11
2022-08-31T00:07:40.320Z,19.37
2022-08-31T00:10:18.386Z,19.16
2022-08-31T00:12:47.524Z,19.18
2022-08-31T00:15:17.777Z,18.98
2022-08-31T00:17:45.163Z,18.83
2022-08-31T00:20:21.581Z,18.73
2022-08-31T00:23:01.368Z,18.38
2022-08-31T00:25:27.755Z,18.84
2022-08-31T00:27:55.604Z,18.51
2022-08-31T00:30:22.231Z,18.42
2022-08-31T00:32:48.678Z,18.09
2022-08-31T00:35:16.499Z,18.39
2022-08-31T00:37:42.945Z,18.56
2022-08-31T00:40:09.979Z,18.39
2022-08-31T00:42:36.501Z,18.33
2022-08-31T00:45:06.172Z,17.59
2022-08-31T00:47:32.643Z,17.31
2022-08-31T00:49:59.944Z,18.15
2022-08-31T00:52:37.778Z,17.49
2022-08-31T00:55:28.785Z,18.09
2022-08-31T00:57:59.222Z,17.80
2022-08-31T01:00:28.179Z,18.03
2022-08-31T01:02:56.319Z,17.95
2022-08-31T01:05:23.109Z,17.90
2022-08-31T01:07:50.785Z,17.90
2022-08-31T01:10:21.064Z,17.79
2022-08-31T01:12:48.766Z,17.97
2022-08-31T01:15:17.644Z,17.30
2022-08-31T01:17:44.878Z,17.97
2022-08-31T01:20:34.676Z,17.85
2022-08-31T01:23:02.853Z,17.94
2022-08-31T01:25:33.546Z,17.37
2022-08-31T01:28:03.741Z,16.97
2022-08-31T01:30:30.490Z,17.68
2022-08-31T01:32:56.862Z,17.87
2022-08-31T01:35:23.288Z,17.85
2022-08-31T01:37:50.413Z,16.81
2022-08-31T01:40:17.889Z,16.75
2022-08-31T01:42:44.359Z,17.25
2022-08-31T01:45:11.945Z,17.32
2022-08-31T01:47:39.968Z,17.53
2022-08-31T01:50:07.293Z,16.96
2022-08-31T01:52:34.178Z,17.09
2022-08-31T01:55:03.438Z,17.45
2022-08-31T01:57:33.610Z,16.52
2022-08-31T02:00:02.156Z,17.00
2022-08-31T02:02:28.629Z,17.42
2022-08-31T02:04:55.176Z,16.85
2022-08-31T02:07:21.628Z,17.10
2022-08-31T02:09:48.128Z,17.40
2022-08-31T02:12:17.418Z,17.37
2022-08-31T02:14:43.857Z,17.33
2022-08-31T02:17:10.782Z,17.32
2022-08-31T02:19:37.276Z,17.32
2022-08-31T02:22:03.772Z,17.08
2022-08-31T02:24:30.590Z,16.72
2022-08-31T02:26:57.116Z,16.98
2022-08-31T02:29:23.500Z,16.93
2022-08-31T02:31:50.025Z,16.53
2022-08-31T02:34:17.464Z,16.66
2022-08-31T02:36:45.263Z,16.87
2022-08-31T02:39:14.870Z,16.11
2022-08-31T02:41:42.209Z,16.88
2022-08-31T02:44:08.727Z,16.63
2022-08-31T02:46:35.385Z,16.87
2022-08-31T02:49:01.976Z,16.79
2022-08-31T02:51:28.457Z,16.67
2022-08-31T02:53:54.848Z,16.07
2022-08-31T02:56:22.029Z,16.32
2022-08-31T02:58:54.550Z,16.59
2022-08-31T03:01:24.584Z,16.75
2022-08-31T03:03:51.022Z,16.77
2022-08-31T03:06:19.280Z,16.01
2022-08-31T03:08:46.826Z,16.80
2022-08-31T03:11:13.510Z,16.80
2022-08-31T03:13:41.144Z,16.77
2022-08-31T03:16:08.835Z,15.90
2022-08-31T03:18:35.337Z,15.76
2022-08-31T03:21:02.387Z,16.25
2022-08-31T03:23:28.946Z,16.68
2022-08-31T03:25:55.366Z,16.50
2022-08-31T03:28:21.864Z,16.14
2022-08-31T03:30:48.734Z,16.06
2022-08-31T03:33:15.717Z,16.46
2022-08-31T03:35:44.121Z,16.26
2022-08-31T03:38:13.598Z,16.58
2022-08-31T03:40:41.513Z,16.58
2022-08-31T03:43:11.593Z,16.57
2022-08-31T03:45:42.357Z,14.93
2022-08-31T03:48:12.915Z,16.51
2022-08-31T03:50:40.783Z,15.86
2022-08-31T03:53:08.926Z,16.06
2022-08-31T03:55:38.136Z,16.53
2022-08-31T03:58:04.661Z,16.51
2022-08-31T04:00:33.873Z,16.49
2022-08-31T04:03:01.412Z,16.49
2022-08-31T04:05:32.912Z,15.83
2022-08-31T04:07:59.732Z,15.47
2022-08-31T04:10:26.570Z,16.39
2022-08-31T04:12:52.973Z,16.12
2022-08-31T04:15:19.508Z,15.88
2022-08-31T04:17:46.536Z,16.32
2022-08-31T04:20:13.902Z,16.35
2022-08-31T04:22:40.834Z,16.23
2022-08-31T04:25:10.101Z,16.34
2022-08-31T04:27:38.134Z,15.77
2022-08-31T04:30:07.642Z,16.37
2022-08-31T04:32:34.855Z,15.91
2022-08-31T04:35:01.953Z,16.08
2022-08-31T04:37:29.391Z,16.33
2022-08-31T04:39:59.248Z,16.02
2022-08-31T04:42:26.197Z,16.23
2022-08-31T04:44:52.618Z,16.30
2022-08-31T04:47:20.209Z,16.29
2022-08-31T04:49:47.572Z,16.24
2022-08-31T04:52:14.289Z,16.05
2022-08-31T04:54:40.644Z,16.03
2022-08-31T04:57:07.129Z,15.58
2022-08-31T04:59:33.640Z,15.63
2022-08-31T05:02:00.455Z,15.74
2022-08-31T05:04:28.923Z,15.70
2022-08-31T05:06:55.418Z,15.86
2022-08-31T05:09:23.501Z,15.38
2022-08-31T05:11:52.382Z,15.63
2022-08-31T05:14:19.188Z,16.08
2022-08-31T05:16:46.541Z,16.10
2022-08-31T05:19:13.491Z,16.15
2022-08-31T05:21:42.052Z,16.17
2022-08-31T05:24:18.105Z,15.90
2022-08-31T05:26:49.873Z,16.23
2022-08-31T05:29:19.274Z,16.14
2022-08-31T05:31:51.547Z,16.34
2022-08-31T05:34:20.076Z,16.37
2022-08-31T05:36:50.229Z,15.98
2022-08-31T05:39:16.688Z,15.84
2022-08-31T05:41:45.277Z,15.88
2022-08-31T05:44:13.366Z,16.26
2022-08-31T05:46:40.862Z,16.14
2022-08-31T05:49:08.764Z,15.94
2022-08-31T05:51:38.650Z,16.35
2022-08-31T05:54:05.332Z,15.88
2022-08-31T05:56:31.874Z,16.28
2022-08-31T05:58:58.371Z,15.81
2022-08-31T06:01:32.456Z,16.25
2022-08-31T06:04:00.383Z,16.28
2022-08-31T06:06:27.378Z,15.84
2022-08-31T06:08:54.458Z,16.20
2022-08-31T06:11:25.132Z,16.32
2022-08-31T06:13:54.949Z,16.18
2022-08-31T06:16:22.910Z,15.68
2022-08-31T06:18:50.697Z,15.73
2022-08-31T06:21:23.789Z,15.74
2022-08-31T06:23:52.024Z,16.37
2022-08-31T06:26:20.223Z,16.22
2022-08-31T06:28:50.875Z,16.41
2022-08-31T06:31:31.295Z,15.33
2022-08-31T06:33:59.229Z,16.08
2022-08-31T06:36:29.488Z,16.48
2022-08-31T06:38:59.203Z,16.50
2022-08-31T06:41:38.141Z,16.21
2022-08-31T06:44:08.489Z,16.22
2022-08-31T06:46:36.653Z,16.43
2022-08-31T06:49:03.736Z,16.19
2022-08-31T06:51:36.372Z,16.35
2022-08-31T06:54:27.555Z,16.47
2022-08-31T06:56:53.794Z,16.38
2022-08-31T06:59:20.271Z,15.85
2022-08-31T07:01:46.720Z,16.24
2022-08-31T07:04:14.365Z,16.50
2022-08-31T07:06:43.851Z,17.00
2022-08-31T07:09:13.789Z,17.02
2022-08-31T07:11:44.902Z,17.13
2022-08-31T07:14:15.372Z,17.14
2022-08-31T07:16:43.523Z,17.25
2022-08-31T07:19:10.809Z,16.84
2022-08-31T07:21:42.280Z,17.43
2022-08-31T07:24:10.177Z,17.50
2022-08-31T07:26:47.020Z,17.14
2022-08-31T07:29:15.956Z,17.59
2022-08-31T07:31:52.077Z,17.60
2022-08-31T07:34:27.979Z,17.66
2022-08-31T07:37:15.620Z,17.49
2022-08-31T07:40:06.791Z,17.79
2022-08-31T07:42:40.306Z,17.51
2022-08-31T07:45:12.124Z,18.13
2022-08-31T07:47:45.074Z,18.44
2022-08-31T07:50:13.269Z,18.36
2022-08-31T07:52:47.900Z,18.64
2022-08-31T07:55:17.693Z,18.97
2022-08-31T07:57:44.562Z,18.84
2022-08-31T08:00:14.468Z,19.00
2022-08-31T08:02:42.189Z,19.17
2022-08-31T08:05:11.121Z,19.32
2022-08-31T08:07:39.515Z,19.62
2022-08-31T08:10:09.503Z,19.48
2022-08-31T08:12:36.750Z,19.37
2022-08-31T08:15:06.712Z,19.58
2022-08-31T08:17:33.452Z,19.85
2022-08-31T08:19:59.845Z,19.40
2022-08-31T08:22:50.968Z,19.58
2022-08-31T08:25:13.914Z,19.75
2022-08-31T08:27:43.517Z,19.78
2022-08-31T08:30:13.656Z,20.14
2022-08-31T08:32:42.036Z,20.05
2022-08-31T08:35:12.533Z,20.43
2022-08-31T08:37:57.844Z,20.72
2022-08-31T08:40:28.235Z,21.00
2022-08-31T08:42:54.832Z,20.42
2022-08-31T08:45:21.522Z,20.65
2022-08-31T08:47:49.899Z,20.79
2022-08-31T08:50:19.037Z,20.88
2022-08-31T08:52:47.592Z,21.56
2022-08-31T08:55:21.993Z,21.32
2022-08-31T08:57:49.915Z,20.89
2022-08-31T09:00:20.540Z,21.60
2022-08-31T09:03:12.121Z,21.29
2022-08-31T09:06:09.555Z,21.74
2022-08-31T09:09:03.739Z,21.87
2022-08-31T09:11:46.943Z,21.74
2022-08-31T09:14:22.481Z,21.84
2022-08-31T09:17:07.890Z,22.13
2022-08-31T09:19:54.355Z,22.06
2022-08-31T09:22:20.989Z,21.99
2022-08-31T09:24:59.309Z,22.08
2022-08-31T09:27:46.991Z,22.18
2022-08-31T09:30:35.791Z,22.13
2022-08-31T09:33:02.322Z,22.39
2022-08-31T09:35:40.588Z,22.78
2022-08-31T09:38:17.886Z,22.76
2022-08-31T09:40:52.913Z,22.61
2022-08-31T09:43:31.656Z,22.69
2022-08-31T09:46:25.714Z,22.98
2022-08-31T09:48:56.142Z,23.04
2022-08-31T09:51:28.239Z,22.94
2022-08-31T09:54:22.196Z,22.55
2022-08-31T09:56:55.580Z,22.86
2022-08-31T09:59:41.996Z,23.36
2022-08-31T10:02:24.389Z,23.51
2022-08-31T10:04:57.184Z,22.54
2022-08-31T10:07:37.904Z,23.26
2022-08-31T10:10:28.457Z,23.05
2022-08-31T10:13:24.270Z,23.35
2022-08-31T10:16:00.118Z,23.85
2022-08-31T10:18:42.212Z,24.12
2022-08-31T10:21:21.345Z,24.28
2022-08-31T10:23:57.428Z,24.09
2022-08-31T10:26:33.914Z,23.56
2022-08-31T10:29:06.155Z,24.26
2022-08-31T10:31:48.401Z,24.40
2022-08-31T10:34:46.565Z,24.49
2022-08-31T10:37:20.536Z,24.37
2022-08-31T10:39:51.589Z,23.96
2022-08-31T10:42:30.092Z,24.67
2022-08-31T10:45:22.204Z,25.13
2022-08-31T10:47:51.308Z,25.46
2022-08-31T10:50:29.607Z,25.43
2022-08-31T10:53:13.512Z,24.91
2022-08-31T10:55:58.545Z,24.94
2022-08-31T10:58:50.654Z,24.78
2022-08-31T11:01:20.509Z,24.95
2022-08-31T11:04:09.036Z,25.17
2022-08-31T11:06:55.125Z,24.71
2022-08-31T11:09:56.611Z,25.00
2022-08-31T11:12:42.268Z,24.85
2022-08-31T11:15:25.515Z,24.98
2022-08-31T11:18:16.921Z,25.08
2022-08-31T11:20:55.550Z,24.96
2022-08-31T11:23:53.618Z,24.62
2022-08-31T11:26:26.423Z,24.87
2022-08-31T11:29:01.556Z,24.78
2022-08-31T11:31:30.389Z,25.15
2022-08-31T11:34:16.021Z,24.78
2022-08-31T11:36:47.952Z,24.52
2022-08-31T11:39:15.357Z,25.09
2022-08-31T11:41:46.841Z,25.30
2022-08-31T11:44:29.776Z,25.51
2022-08-31T11:47:09.350Z,25.59
2022-08-31T11:49:46.562Z,26.10
2022-08-31T11:52:24.177Z,25.99
2022-08-31T11:54:50.585Z,25.91
2022-08-31T11:57:24.661Z,25.88
2022-08-31T11:59:52.870Z,26.29
2022-08-31T12:02:19.257Z,26.30
2022-08-31T12:04:51.959Z,26.74
2022-08-31T12:07:33.441Z,27.22
2022-08-31T12:10:12.027Z,27.72
2022-08-31T12:13:09.013Z,28.28
2022-08-31T12:16:14.897Z,28.79
2022-08-31T12:19:03.488Z,29.02
2022-08-31T12:21:57.697Z,28.63
2022-08-31T12:24:55.902Z,28.37
2022-08-31T12:27:29.071Z,27.36
2022-08-31T12:30:24.027Z,28.10
2022-08-31T12:33:12.550Z,28.84
2022-08-31T12:35:39.171Z,28.07
2022-08-31T12:38:16.256Z,28.08
2022-08-31T12:40:57.094Z,27.44
2022-08-31T12:43:33.950Z,27.41
2022-08-31T12:46:57.898Z,26.26
2022-08-31T12:49:44.593Z,26.67
2022-08-31T12:52:39.753Z,26.21
2022-08-31T12:55:23.191Z,26.19
2022-08-31T12:57:59.534Z,24.90
2022-08-31T13:00:34.786Z,25.25
2022-08-31T13:03:14.694Z,25.23
2022-08-31T13:05:41.604Z,24.91
2022-08-31T13:08:21.511Z,24.74
2022-08-31T13:10:48.072Z,24.62
2022-08-31T13:13:24.265Z,24.46
2022-08-31T13:15:51.818Z,25.17
2022-08-31T13:18:24.541Z,26.05
2022-08-31T13:20:56.500Z,26.69
2022-08-31T13:23:38.438Z,27.00
2022-08-31T13:26:14.988Z,26.70
2022-08-31T13:28:41.769Z,26.65
2022-08-31T13:31:09.494Z,26.92
2022-08-31T13:33:40.126Z,26.46
2022-08-31T13:36:32.023Z,26.79
2022-08-31T13:39:25.438Z,25.96
2022-08-31T13:42:05.493Z,27.24
2022-08-31T13:44:39.238Z,27.15
2022-08-31T13:47:27.023Z,27.13
2022-08-31T13:50:21.720Z,27.51
2022-08-31T13:55:48.722Z,27.81
2022-08-31T13:58:31.572Z,28.18
2022-08-31T14:01:18.720Z,28.33
2022-08-31T14:03:58.685Z,28.02
2022-08-31T14:06:28.845Z,26.96
2022-08-31T14:09:07.133Z,26.89
2022-08-31T14:11:35.453Z,26.32
2022-08-31T14:14:08.298Z,26.98
2022-08-31T14:16:39.507Z,26.50
2022-08-31T14:19:10.935Z,26.30
2022-08-31T14:21:42.114Z,26.06
2022-08-31T14:24:12.022Z,25.71
2022-08-31T14:26:41.694Z,26.15
2022-08-31T14:29:12.250Z,25.86
2022-08-31T14:31:54.915Z,25.67
2022-08-31T14:34:27.323Z,25.41
2022-08-31T14:37:06.341Z,25.34
2022-08-31T14:39:38.977Z,24.63
2022-08-31T14:42:07.288Z,25.21
2022-08-31T14:44:39.647Z,25.19
2022-08-31T14:47:06.221Z,24.96
2022-08-31T14:49:36.311Z,24.81
2022-08-31T14:52:06.921Z,25.40
2022-08-31T14:54:37.359Z,25.23
2022-08-31T14:57:17.666Z,24.53
2022-08-31T14:59:46.608Z,25.14
2022-08-31T15:02:21.109Z,25.47
2022-08-31T15:04:48.483Z,24.92
2022-08-31T15:07:16.776Z,25.19
2022-08-31T15:09:44.774Z,24.78
2022-08-31T15:12:14.751Z,25.11
2022-08-31T15:14:43.101Z,24.82
2022-08-31T15:17:18.691Z,25.06
2022-08-31T15:19:47.873Z,25.26
2022-08-31T15:22:15.726Z,25.34
2022-08-31T15:24:44.693Z,24.66
2022-08-31T15:27:14.979Z,25.62
2022-08-31T15:29:43.218Z,25.15
2022-08-31T15:32:16.313Z,25.61
2022-08-31T15:34:56.853Z,25.71
2022-08-31T15:37:30.829Z,25.64
2022-08-31T15:40:00.458Z,25.53
2022-08-31T15:42:27.049Z,25.59
2022-08-31T15:44:56.756Z,25.51
2022-08-31T15:47:44.171Z,26.10
2022-08-31T15:50:10.781Z,25.66
2022-08-31T15:52:47.410Z,25.91
2022-08-31T15:55:26.282Z,25.56
2022-08-31T15:57:54.753Z,25.34
2022-08-31T16:00:23.600Z,25.44
2022-08-31T16:02:55.020Z,25.51
2022-08-31T16:05:22.412Z,25.43
2022-08-31T16:07:51.145Z,24.84
2022-08-31T16:10:20.322Z,24.82
2022-08-31T16:12:47.878Z,24.91
2022-08-31T16:15:15.396Z,24.73
2022-08-31T16:17:41.921Z,24.43
2022-08-31T16:20:09.551Z,24.34
2022-08-31T16:22:36.659Z,24.20
2022-08-31T16:25:06.548Z,24.35
2022-08-31T16:27:34.023Z,24.23
2022-08-31T16:30:00.694Z,23.56
2022-08-31T16:32:27.640Z,23.94
2022-08-31T16:34:54.775Z,23.85
2022-08-31T16:37:21.158Z,23.56
2022-08-31T16:39:47.540Z,23.81
2022-08-31T16:42:14.264Z,23.68
2022-08-31T16:44:43.646Z,23.50
2022-08-31T16:47:10.813Z,23.86
2022-08-31T16:49:40.345Z,24.19
2022-08-31T16:52:18.037Z,24.05
2022-08-31T16:54:47.905Z,24.02
2022-08-31T16:57:19.167Z,24.19
2022-08-31T16:59:46.420Z,24.13
2022-08-31T17:02:14.503Z,24.17
2022-08-31T17:04:58.321Z,24.15
2022-08-31T17:07:24.983Z,24.09
2022-08-31T17:09:56.514Z,23.80
2022-08-31T17:12:25.804Z,23.83
2022-08-31T17:14:53.011Z,23.81
2022-08-31T17:17:25.315Z,24.00
2022-08-31T17:19:53.079Z,23.48
2022-08-31T17:22:29.993Z,23.52
2022-08-31T17:25:00.365Z,23.57
2022-08-31T17:27:27.292Z,23.69
2022-08-31T17:30:00.737Z,23.28
2022-08-31T17:32:28.728Z,23.44
2022-08-31T17:34:56.041Z,23.41
2022-08-31T17:37:28.330Z,22.80
2022-08-31T17:39:55.730Z,23.05
2022-08-31T17:42:26.603Z,23.19
2022-08-31T17:44:53.124Z,23.00
2022-08-31T17:47:21.639Z,23.04
2022-08-31T17:49:50.396Z,22.66
2022-08-31T17:52:20.168Z,22.85
2022-08-31T17:54:46.988Z,22.23
2022-08-31T17:57:15.649Z,22.61
2022-08-31T17:59:46.192Z,22.59
2022-08-31T18:02:16.565Z,22.54
2022-08-31T18:04:43.594Z,22.47
2022-08-31T18:07:11.035Z,22.43
2022-08-31T18:09:40.799Z,22.41
2022-08-31T18:12:07.520Z,21.98
2022-08-31T18:14:37.765Z,22.39
2022-08-31T18:17:08.211Z,22.37
2022-08-31T18:19:35.042Z,22.32
2022-08-31T18:22:02.091Z,22.32
2022-08-31T18:24:32.854Z,21.93
2022-08-31T18:27:03.831Z,21.83
2022-08-31T18:29:33.926Z,21.54
2022-08-31T18:32:05.160Z,21.43
2022-08-31T18:34:34.994Z,21.49
2022-08-31T18:37:02.135Z,21.87
2022-08-31T18:39:51.664Z,21.55
2022-08-31T18:42:37.381Z,21.68
2022-08-31T18:45:18.092Z,21.03
2022-08-31T18:48:21.003Z,21.13
2022-08-31T18:50:44.014Z,21.42
2022-08-31T18:53:11.059Z,21.14
2022-08-31T18:55:42.387Z,21.28
2022-08-31T18:58:08.905Z,20.88
2022-08-31T19:00:35.410Z,20.77
2022-08-31T19:03:02.426Z,21.00
2022-08-31T19:05:29.575Z,20.81
2022-08-31T19:07:58.033Z,20.94
2022-08-31T19:10:25.321Z,20.79
2022-08-31T19:12:52.080Z,20.96
2022-08-31T19:15:18.655Z,20.08
2022-08-31T19:17:49.135Z,20.56
2022-08-31T19:20:16.298Z,20.69
2022-08-31T19:22:42.793Z,20.49
2022-08-31T19:25:11.964Z,20.68
2022-08-31T19:27:39.201Z,20.68
2022-08-31T19:30:07.809Z,20.29
2022-08-31T19:32:34.184Z,20.56
2022-08-31T19:35:00.556Z,20.22
2022-08-31T19:37:27.563Z,20.30
2022-08-31T19:39:53.934Z,20.39
2022-08-31T19:42:39.761Z,19.79
2022-08-31T19:45:23.208Z,19.35
2022-08-31T19:47:50.922Z,20.08
2022-08-31T19:50:17.803Z,19.95
2022-08-31T19:52:44.631Z,20.24
2022-08-31T19:55:11.555Z,20.24
2022-08-31T19:57:38.935Z,20.20
2022-08-31T20:00:07.521Z,19.70
2022-08-31T20:02:33.983Z,19.79
2022-08-31T20:05:00.448Z,20.25
2022-08-31T20:07:28.867Z,20.17
2022-08-31T20:09:56.110Z,20.17
2022-08-31T20:12:22.478Z,19.97
2022-08-31T20:14:48.865Z,19.90
2022-08-31T20:17:15.268Z,19.97
2022-08-31T20:19:42.689Z,20.39
2022-08-31T20:22:09.207Z,20.00
2022-08-31T20:24:43.714Z,20.48
2022-08-31T20:27:13.000Z,20.57
2022-08-31T20:29:39.468Z,20.21
2022-08-31T20:32:07.799Z,20.52
2022-08-31T20:34:34.172Z,20.06
2022-08-31T20:37:01.381Z,20.42
2022-08-31T20:39:29.818Z,20.49
2022-08-31T20:41:58.792Z,20.48
2022-08-31T20:44:28.889Z,20.45
2022-08-31T20:47:19.205Z,19.88
2022-08-31T20:49:53.675Z,20.10
2022-08-31T20:52:21.726Z,20.08
2022-08-31T20:54:51.633Z,19.79
2022-08-31T20:57:21.389Z,20.29
2022-08-31T20:59:50.543Z,20.27
2022-08-31T21:02:19.408Z,20.26
2022-08-31T21:04:47.090Z,19.97
2022-08-31T21:07:15.998Z,19.85
2022-08-31T21:09:45.809Z,20.25
2022-08-31T21:12:17.826Z,19.65
2022-08-31T21:14:45.484Z,20.17
2022-08-31T21:17:14.228Z,20.17
2022-08-31T21:19:41.807Z,20.08
2022-08-31T21:22:11.446Z,19.93
2022-08-31T21:24:39.579Z,20.10
2022-08-31T21:27:08.991Z,20.12
2022-08-31T21:29:36.494Z,20.09
2022-08-31T21:32:08.117Z,19.80
2022-08-31T21:34:35.093Z,20.01
2022-08-31T21:37:01.732Z,19.91
2022-08-31T21:39:28.384Z,19.86
2022-08-31T21:41:56.047Z,19.79
2022-08-31T21:44:22.764Z,19.69
2022-08-31T21:46:50.844Z,19.36
2022-08-31T21:49:18.885Z,19.52
2022-08-31T21:51:48.770Z,19.44
2022-08-31T21:54:16.817Z,19.23
2022-08-31T21:56:47.093Z,19.24
2022-08-31T21:59:16.107Z,19.02
2022-08-31T22:01:43.980Z,19.06
2022-08-31T22:04:12.115Z,18.85
2022-08-31T22:06:38.583Z,18.58
2022-08-31T22:09:08.134Z,17.67
2022-08-31T22:11:41.513Z,18.72
2022-08-31T22:14:10.850Z,18.21
2022-08-31T22:16:39.348Z,18.49
2022-08-31T22:19:12.741Z,18.41
2022-08-31T22:21:42.812Z,18.34
2022-08-31T22:24:13.076Z,18.28
2022-08-31T22:26:53.916Z,18.31
2022-08-31T22:29:23.823Z,18.12
2022-08-31T22:31:52.398Z,18.21
2022-08-31T22:34:20.955Z,18.24
2022-08-31T22:36:50.688Z,18.21
2022-08-31T22:39:20.809Z,17.76
2022-08-31T22:41:47.286Z,17.49
2022-08-31T22:44:18.568Z,17.58
2022-08-31T22:46:46.291Z,17.62
2022-08-31T22:49:14.054Z,17.68
2022-08-31T22:51:41.952Z,17.67
2022-08-31T22:54:10.133Z,17.61
2022-08-31T22:56:39.437Z,17.53
2022-08-31T22:59:13.759Z,17.48
2022-08-31T23:01:43.981Z,16.92
2022-08-31T23:04:15.050Z,17.33
2022-08-31T23:06:41.749Z,16.80
2022-08-31T23:09:10.530Z,17.04
2022-08-31T23:11:38.447Z,16.84
2022-08-31T23:14:08.497Z,16.84
2022-08-31T23:16:41.651Z,17.02
2022-08-31T23:19:13.145Z,17.02
2022-08-31T23:21:46.023Z,16.45
2022-08-31T23:24:16.601Z,17.02
2022-08-31T23:26:44.589Z,17.02
2022-08-31T23:29:12.118Z,16.67
2022-08-31T23:31:40.126Z,16.94
2022-08-31T23:34:12.814Z,16.66
2022-08-31T23:36:40.960Z,16.68
2022-08-31T23:39:08.009Z,16.42
2022-08-31T23:41:39.118Z,16.52
2022-08-31T23:44:08.566Z,16.43
2022-08-31T23:46:37.756Z,16.34
2022-08-31T23:49:09.602Z,15.78
2022-08-31T23:51:36.264Z,15.95
2022-08-31T23:54:06.983Z,16.18
2022-08-31T23:56:37.304Z,16.15
2022-08-31T23:59:10.288Z,16.17
